sensor_id;sensor_type;location;lat;lon;timestamp;pressure;altitude;pressure_sealevel;temperature;humidity
23339;BME280;11841;49.368;20.962;2022-10-23T00:00:14;95905.97;;;11.73;100.00
23339;BME280;11841;49.368;20.962;2022-10-23T00:02:40;95906.59;;;11.75;100.00
23339;BME280;11841;49.368;20.962;2022-10-23T00:05:07;95907.19;;;11.77;100.00
23339;BME280;11841;49.368;20.962;2022-10-23T00:07:34;95908.78;;;11.78;100.00
23339;BME280;11841;49.368;20.962;2022-10-23T00:10:00;95914.72;;;11.80;100.00
23339;BME280;11841;49.368;20.962;2022-10-23T00:12:27;95912.44;;;11.84;100.00
23339;BME280;11841;49.368;20.962;2022-10-23T00:14:53;95918.53;;;11.84;100.00
23339;BME280;11841;49.368;20.962;2022-10-23T00:17:19;95919.13;;;11.86;100.00
23339;BME280;11841;49.368;20.962;2022-10-23T00:19:46;95922.38;;;11.88;100.00
23339;BME280;11841;49.368;20.962;2022-10-23T00:22:12;95920.78;;;11.87;100.00
23339;BME280;11841;49.368;20.962;2022-10-23T00:24:39;95932.84;;;11.83;100.00
23339;BME280;11841;49.368;20.962;2022-10-23T00:27:05;95924.28;;;11.81;100.00
23339;BME280;11841;49.368;20.962;2022-10-23T00:29:31;95934.47;;;11.84;100.00
23339;BME280;11841;49.368;20.962;2022-10-23T00:31:58;95934.06;;;11.87;100.00
23339;BME280;11841;49.368;20.962;2022-10-23T00:34:24;95933.38;;;11.92;100.00
23339;BME280;11841;49.368;20.962;2022-10-23T00:36:51;95929.50;;;11.94;100.00
23339;BME280;11841;49.368;20.962;2022-10-23T00:39:17;95925.34;;;11.98;100.00
23339;BME280;11841;49.368;20.962;2022-10-23T00:41:43;95935.75;;;12.00;100.00
23339;BME280;11841;49.368;20.962;2022-10-23T00:46:57;95937.09;;;11.91;100.00
23339;BME280;11841;49.368;20.962;2022-10-23T00:49:24;95939.97;;;11.89;100.00
23339;BME280;11841;49.368;20.962;2022-10-23T00:51:51;95942.03;;;11.87;100.00
23339;BME280;11841;49.368;20.962;2022-10-23T00:54:20;95946.28;;;11.88;100.00
23339;BME280;11841;49.368;20.962;2022-10-23T00:56:50;95940.38;;;11.86;100.00
23339;BME280;11841;49.368;20.962;2022-10-23T00:59:17;95940.97;;;11.88;100.00
23339;BME280;11841;49.368;20.962;2022-10-23T01:01:44;95936.28;;;11.90;100.00
23339;BME280;11841;49.368;20.962;2022-10-23T01:04:10;95942.03;;;11.87;100.00
23339;BME280;11841;49.368;20.962;2022-10-23T01:06:40;95945.28;;;11.89;100.00
23339;BME280;11841;49.368;20.962;2022-10-23T01:11:39;95958.50;;;11.96;100.00
23339;BME280;11841;49.368;20.962;2022-10-23T01:16:58;95956.38;;;12.04;100.00
23339;BME280;11841;49.368;20.962;2022-10-23T01:22:21;95968.75;;;11.92;100.00
23339;BME280;11841;49.368;20.962;2022-10-23T01:24:56;95967.09;;;11.91;100.00
23339;BME280;11841;49.368;20.962;2022-10-23T01:27:28;95975.31;;;11.90;100.00
23339;BME280;11841;49.368;20.962;2022-10-23T01:35:24;95978.03;;;11.83;100.00
23339;BME280;11841;49.368;20.962;2022-10-23T01:37:54;95978.63;;;11.85;100.00
23339;BME280;11841;49.368;20.962;2022-10-23T01:40:34;95974.91;;;11.86;100.00
23339;BME280;11841;49.368;20.962;2022-10-23T01:43:07;95975.38;;;11.83;100.00
23339;BME280;11841;49.368;20.962;2022-10-23T01:45:41;95973.31;;;11.85;100.00
23339;BME280;11841;49.368;20.962;2022-10-23T01:48:10;95973.47;;;11.90;100.00
23339;BME280;11841;49.368;20.962;2022-10-23T01:50:39;95977.72;;;11.91;100.00
23339;BME280;11841;49.368;20.962;2022-10-23T01:53:06;95976.28;;;11.95;100.00
23339;BME280;11841;49.368;20.962;2022-10-23T01:55:33;95980.16;;;11.93;100.00
23339;BME280;11841;49.368;20.962;2022-10-23T01:58:02;95988.38;;;11.91;100.00
23339;BME280;11841;49.368;20.962;2022-10-23T02:00:32;95985.94;;;11.90;100.00
23339;BME280;11841;49.368;20.962;2022-10-23T02:02:59;95990.63;;;11.88;100.00
23339;BME280;11841;49.368;20.962;2022-10-23T02:05:28;95992.06;;;11.90;100.00
23339;BME280;11841;49.368;20.962;2022-10-23T02:07:55;95996.34;;;11.91;100.00
23339;BME280;11841;49.368;20.962;2022-10-23T02:10:23;95993.69;;;11.91;100.00
23339;BME280;11841;49.368;20.962;2022-10-23T02:13:06;95997.97;;;11.92;100.00
23339;BME280;11841;49.368;20.962;2022-10-23T02:15:57;95996.50;;;11.96;100.00
23339;BME280;11841;49.368;20.962;2022-10-23T02:21:08;96008.47;;;12.05;100.00
23339;BME280;11841;49.368;20.962;2022-10-23T02:26:56;96018.22;;;12.11;100.00
23339;BME280;11841;49.368;20.962;2022-10-23T02:29:24;96019.88;;;12.12;100.00
23339;BME280;11841;49.368;20.962;2022-10-23T02:31:52;96026.78;;;12.13;100.00
23339;BME280;11841;49.368;20.962;2022-10-23T02:34:18;96023.13;;;12.14;100.00
23339;BME280;11841;49.368;20.962;2022-10-23T02:36:45;96028.22;;;12.16;100.00
23339;BME280;11841;49.368;20.962;2022-10-23T02:39:11;96025.78;;;12.14;100.00
23339;BME280;11841;49.368;20.962;2022-10-23T02:49:40;96038.69;;;12.11;100.00
23339;BME280;11841;49.368;20.962;2022-10-23T02:52:12;96050.19;;;12.05;100.00
23339;BME280;11841;49.368;20.962;2022-10-23T03:02:36;96053.78;;;11.92;100.00
23339;BME280;11841;49.368;20.962;2022-10-23T03:05:04;96053.94;;;11.97;100.00
23339;BME280;11841;49.368;20.962;2022-10-23T03:07:31;96049.78;;;12.01;100.00
23339;BME280;11841;49.368;20.962;2022-10-23T03:09:57;96045.47;;;12.07;100.00
23339;BME280;11841;49.368;20.962;2022-10-23T03:12:24;96058.53;;;12.08;100.00
23339;BME280;11841;49.368;20.962;2022-10-23T03:14:50;96053.22;;;12.08;100.00
23339;BME280;11841;49.368;20.962;2022-10-23T03:17:17;96068.56;;;12.06;100.00
23339;BME280;11841;49.368;20.962;2022-10-23T03:19:43;96063.09;;;12.01;100.00
23339;BME280;11841;49.368;20.962;2022-10-23T03:22:09;96062.34;;;11.94;100.00
23339;BME280;11841;49.368;20.962;2022-10-23T03:24:36;96068.84;;;11.98;100.00
23339;BME280;11841;49.368;20.962;2022-10-23T03:27:02;96073.72;;;12.01;100.00
23339;BME280;11841;49.368;20.962;2022-10-23T03:29:29;96071.66;;;12.03;100.00
23339;BME280;11841;49.368;20.962;2022-10-23T03:31:55;96069.06;;;11.97;100.00
23339;BME280;11841;49.368;20.962;2022-10-23T03:34:21;96067.66;;;11.94;100.00
23339;BME280;11841;49.368;20.962;2022-10-23T03:36:48;96068.91;;;11.92;100.00
23339;BME280;11841;49.368;20.962;2022-10-23T03:39:15;96077.09;;;11.90;100.00
23339;BME280;11841;49.368;20.962;2022-10-23T03:41:41;96071.81;;;11.84;100.00
23339;BME280;11841;49.368;20.962;2022-10-23T03:44:08;96078.16;;;11.83;100.00
23339;BME280;11841;49.368;20.962;2022-10-23T03:46:34;96080.97;;;11.88;100.00
23339;BME280;11841;49.368;20.962;2022-10-23T03:49:01;96079.09;;;11.95;100.00
23339;BME280;11841;49.368;20.962;2022-10-23T03:51:27;96080.34;;;11.92;100.00
23339;BME280;11841;49.368;20.962;2022-10-23T03:53:54;96075.03;;;11.92;100.00
23339;BME280;11841;49.368;20.962;2022-10-23T03:56:20;96079.75;;;11.90;100.00
23339;BME280;11841;49.368;20.962;2022-10-23T03:58:46;96086.88;;;11.90;100.00
23339;BME280;11841;49.368;20.962;2022-10-23T04:01:13;96080.34;;;11.92;100.00
23339;BME280;11841;49.368;20.962;2022-10-23T04:03:39;96079.56;;;11.85;100.00
23339;BME280;11841;49.368;20.962;2022-10-23T04:06:06;96091.03;;;11.79;100.00
23339;BME280;11841;49.368;20.962;2022-10-23T04:08:32;96088.22;;;11.74;100.00
23339;BME280;11841;49.368;20.962;2022-10-23T04:10:59;96096.84;;;11.70;100.00
23339;BME280;11841;49.368;20.962;2022-10-23T04:13:25;96085.56;;;11.74;100.00
23339;BME280;11841;49.368;20.962;2022-10-23T04:15:52;96091.03;;;11.79;100.00
23339;BME280;11841;49.368;20.962;2022-10-23T04:18:18;96088.56;;;11.84;100.00
23339;BME280;11841;49.368;20.962;2022-10-23T04:20:48;96094.69;;;11.85;100.00
23339;BME280;11841;49.368;20.962;2022-10-23T04:23:14;96092.25;;;11.83;100.00
23339;BME280;11841;49.368;20.962;2022-10-23T04:25:41;96086.78;;;11.78;100.00
23339;BME280;11841;49.368;20.962;2022-10-23T04:28:07;96082.13;;;11.74;100.00
23339;BME280;11841;49.368;20.962;2022-10-23T04:30:34;96087.03;;;11.70;100.00
23339;BME280;11841;49.368;20.962;2022-10-23T04:33:00;96099.72;;;11.62;100.00
23339;BME280;11841;49.368;20.962;2022-10-23T04:35:27;96095.13;;;11.44;100.00
23339;BME280;11841;49.368;20.962;2022-10-23T04:37:53;96095.38;;;11.36;100.00
23339;BME280;11841;49.368;20.962;2022-10-23T04:40:19;96093.16;;;11.33;100.00
23339;BME280;11841;49.368;20.962;2022-10-23T04:42:46;96105.19;;;11.29;100.00
23339;BME280;11841;49.368;20.962;2022-10-23T04:45:12;96108.91;;;11.22;100.00
23339;BME280;11841;49.368;20.962;2022-10-23T04:47:39;96105.28;;;11.16;100.00
23339;BME280;11841;49.368;20.962;2022-10-23T04:50:05;96108.94;;;11.15;100.00
23339;BME280;11841;49.368;20.962;2022-10-23T04:52:32;96117.94;;;11.14;100.00
23339;BME280;11841;49.368;20.962;2022-10-23T04:54:58;96114.25;;;11.15;100.00
23339;BME280;11841;49.368;20.962;2022-10-23T04:57:24;96101.78;;;11.16;100.00
23339;BME280;11841;49.368;20.962;2022-10-23T04:59:51;96104.44;;;11.16;100.00
23339;BME280;11841;49.368;20.962;2022-10-23T05:02:17;96100.34;;;11.13;100.00
23339;BME280;11841;49.368;20.962;2022-10-23T05:04:44;96106.53;;;11.07;100.00
23339;BME280;11841;49.368;20.962;2022-10-23T05:07:10;96107.38;;;11.01;100.00
23339;BME280;11841;49.368;20.962;2022-10-23T05:09:36;96106.16;;;10.97;100.00
23339;BME280;11841;49.368;20.962;2022-10-23T05:12:03;96119.00;;;10.93;100.00
23339;BME280;11841;49.368;20.962;2022-10-23T05:14:29;96127.41;;;10.90;100.00
23339;BME280;11841;49.368;20.962;2022-10-23T05:16:59;96134.34;;;10.85;100.00
23339;BME280;11841;49.368;20.962;2022-10-23T05:19:28;96129.25;;;10.77;100.00
23339;BME280;11841;49.368;20.962;2022-10-23T05:21:58;96123.78;;;10.72;100.00
23339;BME280;11841;49.368;20.962;2022-10-23T05:24:24;96129.88;;;10.66;100.00
23339;BME280;11841;49.368;20.962;2022-10-23T05:26:51;96127.03;;;10.61;100.00
23339;BME280;11841;49.368;20.962;2022-10-23T05:29:18;96134.19;;;10.54;100.00
23339;BME280;11841;49.368;20.962;2022-10-23T05:31:45;96136.06;;;10.47;100.00
23339;BME280;11841;49.368;20.962;2022-10-23T05:34:12;96137.25;;;10.44;100.00
23339;BME280;11841;49.368;20.962;2022-10-23T05:36:39;96141.34;;;10.40;100.00
23339;BME280;11841;49.368;20.962;2022-10-23T05:39:06;96143.56;;;10.37;100.00
23339;BME280;11841;49.368;20.962;2022-10-23T05:41:32;96146.03;;;10.32;100.00
23339;BME280;11841;49.368;20.962;2022-10-23T05:43:59;96141.34;;;10.27;100.00
23339;BME280;11841;49.368;20.962;2022-10-23T05:46:25;96138.50;;;10.22;100.00
23339;BME280;11841;49.368;20.962;2022-10-23T05:48:53;96131.56;;;10.21;100.00
23339;BME280;11841;49.368;20.962;2022-10-23T05:51:20;96149.72;;;10.18;100.00
23339;BME280;11841;49.368;20.962;2022-10-23T05:53:48;96140.31;;;10.15;100.00
23339;BME280;11841;49.368;20.962;2022-10-23T05:56:14;96154.41;;;10.16;100.00
23339;BME280;11841;49.368;20.962;2022-10-23T05:58:41;96156.44;;;10.14;100.00
23339;BME280;11841;49.368;20.962;2022-10-23T06:01:09;96158.88;;;10.09;100.00
23339;BME280;11841;49.368;20.962;2022-10-23T06:03:36;96164.16;;;10.09;100.00
23339;BME280;11841;49.368;20.962;2022-10-23T06:06:02;96159.69;;;10.09;100.00
23339;BME280;11841;49.368;20.962;2022-10-23T06:08:29;96160.50;;;10.10;100.00
23339;BME280;11841;49.368;20.962;2022-10-23T06:10:56;96156.84;;;10.11;100.00
23339;BME280;11841;49.368;20.962;2022-10-23T06:13:23;96160.50;;;10.10;100.00
23339;BME280;11841;49.368;20.962;2022-10-23T06:15:49;96164.34;;;10.07;100.00
23339;BME280;11841;49.368;20.962;2022-10-23T06:18:15;96167.81;;;10.08;100.00
23339;BME280;11841;49.368;20.962;2022-10-23T06:20:42;96164.56;;;10.06;100.00
23339;BME280;11841;49.368;20.962;2022-10-23T06:23:09;96168.41;;;10.03;100.00
23339;BME280;11841;49.368;20.962;2022-10-23T06:25:35;96167.59;;;10.03;100.00
23339;BME280;11841;49.368;20.962;2022-10-23T06:28:02;96168.59;;;10.02;100.00
23339;BME280;11841;49.368;20.962;2022-10-23T06:30:28;96177.59;;;10.01;100.00
23339;BME280;11841;49.368;20.962;2022-10-23T06:32:55;96173.28;;;10.00;100.00
23339;BME280;11841;49.368;20.962;2022-10-23T06:35:21;96175.13;;;9.99;100.00
23339;BME280;11841;49.368;20.962;2022-10-23T06:37:48;96169.63;;;10.01;100.00
23339;BME280;11841;49.368;20.962;2022-10-23T06:40:14;96176.56;;;10.02;100.00
23339;BME280;11841;49.368;20.962;2022-10-23T06:42:40;96168.00;;;10.00;100.00
23339;BME280;11841;49.368;20.962;2022-10-23T06:45:07;96173.28;;;10.00;100.00
23339;BME280;11841;49.368;20.962;2022-10-23T06:47:34;96172.50;;;9.99;100.00
23339;BME280;11841;49.368;20.962;2022-10-23T06:50:00;96184.72;;;10.00;100.00
23339;BME280;11841;49.368;20.962;2022-10-23T06:52:27;96184.72;;;10.00;100.00
23339;BME280;11841;49.368;20.962;2022-10-23T06:55:13;96196.75;;;10.03;100.00
23339;BME280;11841;49.368;20.962;2022-10-23T06:57:39;96190.41;;;10.04;100.00
23339;BME280;11841;49.368;20.962;2022-10-23T07:00:06;96190.22;;;10.05;100.00
23339;BME280;11841;49.368;20.962;2022-10-23T07:02:33;96192.66;;;10.07;100.00
23339;BME280;11841;49.368;20.962;2022-10-23T07:04:59;96189.00;;;10.08;100.00
23339;BME280;11841;49.368;20.962;2022-10-23T07:07:28;96195.13;;;10.08;100.00
23339;BME280;11841;49.368;20.962;2022-10-23T07:09:54;96203.91;;;10.09;100.00
23339;BME280;11841;49.368;20.962;2022-10-23T07:12:20;96200.84;;;10.12;100.00
23339;BME280;11841;49.368;20.962;2022-10-23T07:14:47;96196.38;;;10.12;100.00
23339;BME280;11841;49.368;20.962;2022-10-23T07:17:13;96194.34;;;10.14;100.00
23339;BME280;11841;49.368;20.962;2022-10-23T07:19:40;96192.31;;;10.16;100.00
23339;BME280;11841;49.368;20.962;2022-10-23T07:22:06;96186.81;;;10.18;100.00
23339;BME280;11841;49.368;20.962;2022-10-23T07:24:37;96189.88;;;10.21;100.00
23339;BME280;11841;49.368;20.962;2022-10-23T07:27:03;96193.31;;;10.22;100.00
23339;BME280;11841;49.368;20.962;2022-10-23T07:29:30;96199.22;;;10.24;100.00
23339;BME280;11841;49.368;20.962;2022-10-23T07:31:57;96196.19;;;10.27;100.00
23339;BME280;11841;49.368;20.962;2022-10-23T07:34:23;96197.41;;;10.31;100.00
23339;BME280;11841;49.368;20.962;2022-10-23T07:36:50;96193.56;;;10.33;100.00
23339;BME280;11841;49.368;20.962;2022-10-23T07:39:16;96201.88;;;10.37;100.00
23339;BME280;11841;49.368;20.962;2022-10-23T07:41:42;96199.47;;;10.42;100.00
23339;BME280;11841;49.368;20.962;2022-10-23T07:44:09;96198.03;;;10.46;100.00
23339;BME280;11841;49.368;20.962;2022-10-23T07:46:35;96195.78;;;10.49;100.00
23339;BME280;11841;49.368;20.962;2022-10-23T07:49:02;96198.03;;;10.52;100.00
23339;BME280;11841;49.368;20.962;2022-10-23T07:51:28;96205.38;;;10.57;100.00
23339;BME280;11841;49.368;20.962;2022-10-23T07:53:54;96219.84;;;10.61;100.00
23339;BME280;11841;49.368;20.962;2022-10-23T07:56:22;96214.94;;;10.64;100.00
23339;BME280;11841;49.368;20.962;2022-10-23T07:58:49;96211.88;;;10.67;100.00
23339;BME280;11841;49.368;20.962;2022-10-23T08:01:17;96213.94;;;10.72;100.00
23339;BME280;11841;49.368;20.962;2022-10-23T08:03:44;96208.22;;;10.75;100.00
23339;BME280;11841;49.368;20.962;2022-10-23T08:06:10;96210.03;;;10.81;100.00
23339;BME280;11841;49.368;20.962;2022-10-23T08:08:37;96215.53;;;10.86;100.00
23339;BME280;11841;49.368;20.962;2022-10-23T08:11:04;96214.31;;;10.88;100.00
23339;BME280;11841;49.368;20.962;2022-10-23T08:13:30;96215.16;;;10.89;100.00
23339;BME280;11841;49.368;20.962;2022-10-23T08:15:57;96220.03;;;10.92;100.00
23339;BME280;11841;49.368;20.962;2022-10-23T08:18:23;96218.00;;;10.94;100.00
23339;BME280;11841;49.368;20.962;2022-10-23T08:20:50;96219.19;;;10.98;100.00
23339;BME280;11841;49.368;20.962;2022-10-23T08:23:17;96227.34;;;11.03;100.00
23339;BME280;11841;49.368;20.962;2022-10-23T08:25:44;96233.88;;;11.07;100.00
23339;BME280;11841;49.368;20.962;2022-10-23T08:28:11;96229.81;;;11.11;100.00
23339;BME280;11841;49.368;20.962;2022-10-23T08:30:37;96235.91;;;11.25;100.00
23339;BME280;11841;49.368;20.962;2022-10-23T08:33:04;96238.31;;;11.39;100.00
23339;BME280;11841;49.368;20.962;2022-10-23T08:35:34;96239.94;;;11.47;100.00
23339;BME280;11841;49.368;20.962;2022-10-23T08:38:00;96239.06;;;11.53;100.00
23339;BME280;11841;49.368;20.962;2022-10-23T08:40:27;96233.13;;;11.57;100.00
23339;BME280;11841;49.368;20.962;2022-10-23T08:43:18;96231.69;;;11.61;100.00
23339;BME280;11841;49.368;20.962;2022-10-23T08:45:50;96228.81;;;11.69;100.00
23339;BME280;11841;49.368;20.962;2022-10-23T08:48:29;96245.13;;;11.79;100.00
23339;BME280;11841;49.368;20.962;2022-10-23T08:51:15;96238.94;;;11.92;100.00
23339;BME280;11841;49.368;20.962;2022-10-23T08:56:17;96233.72;;;12.10;100.00
23339;BME280;11841;49.368;20.962;2022-10-23T08:58:47;96232.50;;;12.12;100.00
23339;BME280;11841;49.368;20.962;2022-10-23T09:01:42;96230.44;;;12.14;100.00
23339;BME280;11841;49.368;20.962;2022-10-23T09:04:12;96225.81;;;12.35;100.00
23339;BME280;11841;49.368;20.962;2022-10-23T09:12:19;96227.84;;;12.64;100.00
23339;BME280;11841;49.368;20.962;2022-10-23T09:19:45;96218.00;;;13.13;96.41
23339;BME280;11841;49.368;20.962;2022-10-23T09:22:11;96224.22;;;13.25;96.07
23339;BME280;11841;49.368;20.962;2022-10-23T09:24:41;96216.63;;;13.29;96.92
23339;BME280;11841;49.368;20.962;2022-10-23T09:27:08;96220.09;;;13.29;95.65
23339;BME280;11841;49.368;20.962;2022-10-23T09:29:36;96222.69;;;13.36;95.54
23339;BME280;11841;49.368;20.962;2022-10-23T09:32:04;96225.72;;;13.40;96.63
23339;BME280;11841;49.368;20.962;2022-10-23T09:34:32;96224.19;;;13.50;95.52
23339;BME280;11841;49.368;20.962;2022-10-23T09:37:00;96217.16;;;13.56;95.77
23339;BME280;11841;49.368;20.962;2022-10-23T09:41:53;96217.69;;;13.64;94.70
23339;BME280;11841;49.368;20.962;2022-10-23T09:44:26;96222.69;;;13.72;95.47
23339;BME280;11841;49.368;20.962;2022-10-23T09:47:06;96223.84;;;13.76;94.18
23339;BME280;11841;49.368;20.962;2022-10-23T09:49:33;96219.03;;;13.85;93.72
23339;BME280;11841;49.368;20.962;2022-10-23T09:52:01;96213.19;;;13.94;94.63
23339;BME280;11841;49.368;20.962;2022-10-23T09:54:30;96221.47;;;14.04;94.31
23339;BME280;11841;49.368;20.962;2022-10-23T09:56:58;96214.69;;;14.20;92.88
23339;BME280;11841;49.368;20.962;2022-10-23T09:59:27;96214.66;;;14.38;91.10
23339;BME280;11841;49.368;20.962;2022-10-23T10:01:59;96218.25;;;14.43;90.95
23339;BME280;11841;49.368;20.962;2022-10-23T10:04:39;96210.50;;;14.53;90.52
23339;BME280;11841;49.368;20.962;2022-10-23T10:07:16;96212.25;;;14.60;90.82
23339;BME280;11841;49.368;20.962;2022-10-23T10:09:43;96216.09;;;14.64;90.50
23339;BME280;11841;49.368;20.962;2022-10-23T10:17:27;96209.03;;;14.81;88.35
23339;BME280;11841;49.368;20.962;2022-10-23T10:20:10;96205.00;;;14.90;88.22
23339;BME280;11841;49.368;20.962;2022-10-23T10:22:41;96204.19;;;15.01;86.06
23339;BME280;11841;49.368;20.962;2022-10-23T10:25:26;96195.69;;;15.04;87.87
23339;BME280;11841;49.368;20.962;2022-10-23T10:33:16;96190.38;;;15.27;84.21
23339;BME280;11841;49.368;20.962;2022-10-23T10:38:26;96181.41;;;15.44;83.20
23339;BME280;11841;49.368;20.962;2022-10-23T10:46:28;96171.72;;;15.66;81.21
23339;BME280;11841;49.368;20.962;2022-10-23T10:48:59;96175.97;;;15.79;81.92
23339;BME280;11841;49.368;20.962;2022-10-23T10:54:15;96160.72;;;15.91;82.25
23339;BME280;11841;49.368;20.962;2022-10-23T10:56:44;96150.94;;;15.97;82.62
23339;BME280;11841;49.368;20.962;2022-10-23T10:59:18;96148.34;;;16.02;81.08
23339;BME280;11841;49.368;20.962;2022-10-23T11:04:33;96142.44;;;16.16;79.82
23339;BME280;11841;49.368;20.962;2022-10-23T11:07:04;96137.75;;;16.23;80.42
23339;BME280;11841;49.368;20.962;2022-10-23T11:09:32;96136.88;;;16.34;79.09
23339;BME280;11841;49.368;20.962;2022-10-23T11:11:58;96130.31;;;16.42;78.13
23339;BME280;11841;49.368;20.962;2022-10-23T11:14:26;96120.31;;;16.49;76.01
23339;BME280;11841;49.368;20.962;2022-10-23T11:17:03;96118.53;;;16.54;75.01
23339;BME280;11841;49.368;20.962;2022-10-23T11:19:35;96113.78;;;16.61;73.35
23339;BME280;11841;49.368;20.962;2022-10-23T11:24:45;96115.09;;;16.75;72.69
23339;BME280;11841;49.368;20.962;2022-10-23T11:27:23;96110.63;;;16.81;71.56
23339;BME280;11841;49.368;20.962;2022-10-23T11:37:24;96093.28;;;17.05;73.71
23339;BME280;11841;49.368;20.962;2022-10-23T11:39:57;96096.81;;;17.11;75.31
23339;BME280;11841;49.368;20.962;2022-10-23T11:47:56;96094.50;;;17.36;74.25
23339;BME280;11841;49.368;20.962;2022-10-23T11:50:25;96097.34;;;17.46;72.90
23339;BME280;11841;49.368;20.962;2022-10-23T11:55:38;96072.69;;;17.49;69.84
23339;BME280;11841;49.368;20.962;2022-10-23T11:58:14;96065.69;;;17.48;68.82
23339;BME280;11841;49.368;20.962;2022-10-23T12:00:50;96059.09;;;17.55;69.63
23339;BME280;11841;49.368;20.962;2022-10-23T12:03:19;96059.47;;;17.64;69.55
23339;BME280;11841;49.368;20.962;2022-10-23T12:05:54;96056.84;;;17.69;70.02
23339;BME280;11841;49.368;20.962;2022-10-23T12:08:22;96072.59;;;17.65;68.28
23339;BME280;11841;49.368;20.962;2022-10-23T12:10:50;96065.13;;;17.67;68.73
23339;BME280;11841;49.368;20.962;2022-10-23T12:15:56;96078.69;;;17.82;68.74
23339;BME280;11841;49.368;20.962;2022-10-23T12:18:26;96069.94;;;17.92;69.07
23339;BME280;11841;49.368;20.962;2022-10-23T12:20:53;96082.34;;;17.98;67.99
23339;BME280;11841;49.368;20.962;2022-10-23T12:28:48;96067.66;;;18.05;64.08
23339;BME280;11841;49.368;20.962;2022-10-23T12:33:45;96063.09;;;18.06;65.32
23339;BME280;11841;49.368;20.962;2022-10-23T12:38:50;96045.94;;;18.07;67.16
23339;BME280;11841;49.368;20.962;2022-10-23T12:43:44;96059.38;;;18.07;67.05
23339;BME280;11841;49.368;20.962;2022-10-23T12:48:47;96054.00;;;18.07;67.57
23339;BME280;11841;49.368;20.962;2022-10-23T12:51:17;96043.28;;;18.07;68.21
23339;BME280;11841;49.368;20.962;2022-10-23T12:53:47;96049.41;;;18.07;69.23
23339;BME280;11841;49.368;20.962;2022-10-23T12:56:14;96050.25;;;18.08;70.20
23339;BME280;11841;49.368;20.962;2022-10-23T12:58:51;96044.06;;;18.07;71.21
23339;BME280;11841;49.368;20.962;2022-10-23T13:01:26;96036.81;;;18.08;72.06
23339;BME280;11841;49.368;20.962;2022-10-23T13:06:47;96041.31;;;18.02;72.28
23339;BME280;11841;49.368;20.962;2022-10-23T13:09:33;96033.03;;;18.04;72.08
23339;BME280;11841;49.368;20.962;2022-10-23T13:12:01;96033.50;;;17.96;71.22
23339;BME280;11841;49.368;20.962;2022-10-23T13:17:31;96022.72;;;17.91;69.92
23339;BME280;11841;49.368;20.962;2022-10-23T13:20:08;96014.94;;;17.89;69.35
23339;BME280;11841;49.368;20.962;2022-10-23T13:22:35;96013.56;;;17.87;68.29
23339;BME280;11841;49.368;20.962;2022-10-23T13:25:01;96007.88;;;17.83;67.94
23339;BME280;11841;49.368;20.962;2022-10-23T13:27:33;96010.56;;;17.83;68.20
23339;BME280;11841;49.368;20.962;2022-10-23T13:30:00;96015.19;;;17.88;69.86
23339;BME280;11841;49.368;20.962;2022-10-23T13:32:28;96012.50;;;17.88;70.69
23339;BME280;11841;49.368;20.962;2022-10-23T13:34:55;96016.78;;;17.89;71.00
23339;BME280;11841;49.368;20.962;2022-10-23T13:37:47;96006.09;;;17.94;71.64
23339;BME280;11841;49.368;20.962;2022-10-23T13:40:24;96012.03;;;17.96;71.63
23339;BME280;11841;49.368;20.962;2022-10-23T13:42:51;96010.69;;;17.93;72.89
23339;BME280;11841;49.368;20.962;2022-10-23T13:45:19;96008.19;;;17.87;73.84
23339;BME280;11841;49.368;20.962;2022-10-23T13:47:46;95998.53;;;17.86;73.68
23339;BME280;11841;49.368;20.962;2022-10-23T13:50:12;96000.16;;;17.87;73.99
23339;BME280;11841;49.368;20.962;2022-10-23T13:52:38;96004.19;;;17.89;73.46
23339;BME280;11841;49.368;20.962;2022-10-23T13:57:40;96006.03;;;17.84;74.70
23339;BME280;11841;49.368;20.962;2022-10-23T14:00:08;96020.50;;;17.83;75.24
23339;BME280;11841;49.368;20.962;2022-10-23T14:02:35;96009.22;;;17.81;75.37
23339;BME280;11841;49.368;20.962;2022-10-23T14:05:01;96001.19;;;17.81;75.49
23339;BME280;11841;49.368;20.962;2022-10-23T14:07:28;96002.47;;;17.78;75.85
23339;BME280;11841;49.368;20.962;2022-10-23T14:09:54;96005.94;;;17.74;76.20
23339;BME280;11841;49.368;20.962;2022-10-23T14:12:20;96003.19;;;17.69;76.69
23339;BME280;11841;49.368;20.962;2022-10-23T14:14:50;96009.28;;;17.59;77.29
23339;BME280;11841;49.368;20.962;2022-10-23T14:17:21;96001.97;;;17.55;77.47
23339;BME280;11841;49.368;20.962;2022-10-23T14:19:48;96010.53;;;17.52;77.77
23339;BME280;11841;49.368;20.962;2022-10-23T14:22:15;96005.56;;;17.39;77.08
23339;BME280;11841;49.368;20.962;2022-10-23T14:24:43;96001.75;;;17.35;77.95
23339;BME280;11841;49.368;20.962;2022-10-23T14:27:09;96004.38;;;17.30;78.20
23339;BME280;11841;49.368;20.962;2022-10-23T14:29:38;95998.31;;;17.18;78.73
23339;BME280;11841;49.368;20.962;2022-10-23T14:32:05;96003.06;;;17.11;78.76
23339;BME280;11841;49.368;20.962;2022-10-23T14:34:31;95994.50;;;17.09;78.99
23339;BME280;11841;49.368;20.962;2022-10-23T14:36:58;95993.38;;;17.05;79.24
23339;BME280;11841;49.368;20.962;2022-10-23T14:39:40;95994.13;;;17.00;78.98
23339;BME280;11841;49.368;20.962;2022-10-23T14:42:10;95998.84;;;16.93;79.26
23339;BME280;11841;49.368;20.962;2022-10-23T14:44:36;95996.91;;;16.88;79.56
23339;BME280;11841;49.368;20.962;2022-10-23T14:47:04;95998.41;;;16.79;79.76
23339;BME280;11841;49.368;20.962;2022-10-23T14:49:30;95994.84;;;16.74;79.94
23339;BME280;11841;49.368;20.962;2022-10-23T14:51:57;96002.00;;;16.68;80.01